createdAt,value
2019-05-28T00:01:09.944Z,86.42
2019-05-28T00:03:38.368Z,86.66
2019-05-28T00:06:06.819Z,86.83
2019-05-28T00:08:35.254Z,86.90
2019-05-28T00:11:03.678Z,87.15
2019-05-28T00:13:32.114Z,87.16
2019-05-28T00:16:00.559Z,87.25
2019-05-28T00:18:28.982Z,87.25
2019-05-28T00:20:57.406Z,86.92
2019-05-28T00:23:25.839Z,86.35
2019-05-28T00:25:54.326Z,86.41
2019-05-28T00:28:22.773Z,86.37
2019-05-28T00:30:51.201Z,86.37
2019-05-28T00:33:19.646Z,86.99
2019-05-28T00:35:48.075Z,87.31
2019-05-28T00:38:16.533Z,88.79
2019-05-28T00:40:45.039Z,89.42
2019-05-28T00:43:13.472Z,89.50
2019-05-28T00:45:41.912Z,89.85
2019-05-28T00:48:10.415Z,90.09
2019-05-28T00:50:39.012Z,89.64
2019-05-28T00:53:07.512Z,89.64
2019-05-28T00:55:36.959Z,89.97
2019-05-28T00:58:05.666Z,89.96
2019-05-28T01:00:51.167Z,90.00
2019-05-28T01:03:19.607Z,90.14
2019-05-28T01:05:48.038Z,90.37
2019-05-28T01:08:16.475Z,90.53
2019-05-28T01:10:45.577Z,90.45
2019-05-28T01:13:14.008Z,90.43
2019-05-28T01:15:42.470Z,90.27
2019-05-28T01:18:11.079Z,90.58
2019-05-28T01:20:39.511Z,90.71
2019-05-28T01:23:07.962Z,90.62
2019-05-28T01:25:36.397Z,90.62
2019-05-28T01:28:04.981Z,90.73
2019-05-28T01:30:33.441Z,90.89
2019-05-28T01:33:01.875Z,90.98
2019-05-28T01:35:30.308Z,90.77
2019-05-28T01:37:58.797Z,90.82
2019-05-28T01:40:27.253Z,90.68
2019-05-28T01:42:55.674Z,90.69
2019-05-28T01:45:24.103Z,90.84
2019-05-28T01:47:52.564Z,90.23
2019-05-28T01:50:21.182Z,90.30
2019-05-28T01:52:49.609Z,90.48
2019-05-28T01:55:18.175Z,90.70
2019-05-28T01:57:46.609Z,90.77
2019-05-28T02:00:15.589Z,90.98
2019-05-28T02:02:44.115Z,91.03
2019-05-28T02:05:12.978Z,91.12
2019-05-28T02:07:41.408Z,90.65
2019-05-28T02:10:11.721Z,90.83
2019-05-28T02:12:40.152Z,91.04
2019-05-28T02:15:10.942Z,90.86
2019-05-28T02:17:39.435Z,90.90
2019-05-28T02:20:09.608Z,90.85
2019-05-28T02:22:38.053Z,91.07
2019-05-28T02:25:11.357Z,91.33
2019-05-28T02:27:39.771Z,91.36
2019-05-28T02:30:14.143Z,91.34
2019-05-28T02:32:42.556Z,91.03
2019-05-28T02:35:11.526Z,91.32
2019-05-28T02:37:39.957Z,91.21
2019-05-28T02:40:08.936Z,91.26
2019-05-28T02:42:37.439Z,91.38
2019-05-28T02:45:12.762Z,91.38
2019-05-28T02:47:41.228Z,91.37
2019-05-28T02:50:11.006Z,91.52
2019-05-28T02:52:40.075Z,91.56
2019-05-28T02:55:09.344Z,91.62
2019-05-28T02:57:40.827Z,91.52
2019-05-28T03:00:14.934Z,91.56
2019-05-28T03:02:46.410Z,91.51
2019-05-28T03:05:15.080Z,91.49
2019-05-28T03:07:46.921Z,91.38
2019-05-28T03:10:17.144Z,91.53
2019-05-28T03:12:45.603Z,91.62
2019-05-28T03:15:15.363Z,91.63
2019-05-28T03:17:44.760Z,91.72
2019-05-28T03:20:13.632Z,91.74
2019-05-28T03:22:44.499Z,91.58
2019-05-28T03:25:13.066Z,91.56
2019-05-28T03:27:41.586Z,91.38
2019-05-28T03:30:11.254Z,91.50
2019-05-28T03:32:39.681Z,91.73
2019-05-28T03:35:08.356Z,91.78
2019-05-28T03:37:37.531Z,91.71
2019-05-28T03:40:08.795Z,91.74
2019-05-28T03:42:37.302Z,91.74
2019-05-28T03:45:06.881Z,91.68
2019-05-28T03:47:35.323Z,91.50
2019-05-28T03:50:07.430Z,91.60
2019-05-28T03:52:35.864Z,91.68
2019-05-28T03:55:08.315Z,91.75
2019-05-28T03:57:36.819Z,91.79
2019-05-28T04:00:08.075Z,91.91
2019-05-28T04:02:36.523Z,91.68
2019-05-28T04:05:05.688Z,91.84
2019-05-28T04:07:34.198Z,91.88
2019-05-28T04:10:02.644Z,91.91
2019-05-28T04:12:31.077Z,91.85
2019-05-28T04:14:59.500Z,91.79
2019-05-28T04:17:27.947Z,91.68
2019-05-28T04:19:56.377Z,91.75
2019-05-28T04:22:24.808Z,91.69
2019-05-28T04:24:53.235Z,91.81
2019-05-28T04:27:21.671Z,91.82
2019-05-28T04:29:50.114Z,91.74
2019-05-28T04:32:18.545Z,91.82
2019-05-28T04:34:46.972Z,91.81
2019-05-28T04:37:15.413Z,91.73
2019-05-28T04:39:43.839Z,91.83
2019-05-28T04:42:12.271Z,91.99
2019-05-28T04:44:40.699Z,92.10
2019-05-28T04:47:09.206Z,91.98
2019-05-28T04:49:37.744Z,91.78
2019-05-28T04:52:06.194Z,91.80
2019-05-28T04:54:34.609Z,91.77
2019-05-28T04:57:03.070Z,91.67
2019-05-28T04:59:31.496Z,91.66
2019-05-28T05:01:59.929Z,91.80
2019-05-28T05:04:28.356Z,91.96
2019-05-28T05:06:56.834Z,92.01
2019-05-28T05:09:25.236Z,92.09
2019-05-28T05:11:53.664Z,92.13
2019-05-28T05:14:22.097Z,92.15
2019-05-28T05:16:50.528Z,92.13
2019-05-28T05:19:18.970Z,92.13
2019-05-28T05:21:47.401Z,92.18
2019-05-28T05:24:15.832Z,92.19
2019-05-28T05:26:44.271Z,92.23
2019-05-28T05:29:12.721Z,92.29
2019-05-28T05:31:41.172Z,92.28
2019-05-28T05:34:09.600Z,92.25
2019-05-28T05:36:38.035Z,92.29
2019-05-28T05:39:08.524Z,92.32
2019-05-28T05:41:36.949Z,92.36
2019-05-28T05:44:05.455Z,92.35
2019-05-28T05:46:33.886Z,92.38
2019-05-28T05:49:02.316Z,92.42
2019-05-28T05:51:30.750Z,92.42
2019-05-28T05:53:59.184Z,92.43
2019-05-28T05:56:27.678Z,92.42
2019-05-28T05:58:56.079Z,92.42
2019-05-28T06:01:24.623Z,92.44
2019-05-28T06:03:53.048Z,92.37
2019-05-28T06:06:21.493Z,92.39
2019-05-28T06:08:49.982Z,92.41
2019-05-28T06:11:18.441Z,92.37
2019-05-28T06:13:46.914Z,92.48
2019-05-28T06:16:15.350Z,92.66
2019-05-28T06:18:43.803Z,92.71
2019-05-28T06:21:17.455Z,92.63
2019-05-28T06:23:42.436Z,92.63
2019-05-28T06:26:11.066Z,92.61
2019-05-28T06:28:39.491Z,92.57
2019-05-28T06:31:07.990Z,92.56
2019-05-28T06:33:36.427Z,92.60
2019-05-28T06:36:04.986Z,92.46
2019-05-28T06:38:33.460Z,92.52
2019-05-28T06:41:01.897Z,92.58
2019-05-28T06:43:30.400Z,92.61
2019-05-28T06:45:58.892Z,92.62
2019-05-28T06:48:27.346Z,92.59
2019-05-28T06:50:55.747Z,92.53
2019-05-28T06:53:24.186Z,92.62
2019-05-28T06:55:52.622Z,92.65
2019-05-28T06:58:37.999Z,92.48
2019-05-28T07:00:51.214Z,92.55
2019-05-28T07:03:19.657Z,92.51
2019-05-28T07:06:05.129Z,92.58
2019-05-28T07:08:18.255Z,92.48
2019-05-28T07:10:57.219Z,92.28
2019-05-28T07:13:16.861Z,92.10
2019-05-28T07:15:45.563Z,91.87
2019-05-28T07:18:14.007Z,91.81
2019-05-28T07:20:42.439Z,91.67
2019-05-28T07:23:10.876Z,91.50
2019-05-28T07:25:39.434Z,91.58
2019-05-28T07:28:11.489Z,91.36
2019-05-28T07:30:38.000Z,90.90
2019-05-28T07:33:06.587Z,90.42
2019-05-28T07:35:45.170Z,89.80
2019-05-28T07:38:05.222Z,90.26
2019-05-28T07:40:33.974Z,89.39
2019-05-28T07:43:03.509Z,90.29
2019-05-28T07:45:31.927Z,90.58
2019-05-28T07:48:00.339Z,89.79
2019-05-28T07:50:28.773Z,89.91
2019-05-28T07:52:57.230Z,90.33
2019-05-28T07:55:25.713Z,89.99
2019-05-28T07:57:54.147Z,88.18
2019-05-28T08:00:37.807Z,88.68
2019-05-28T08:03:06.567Z,88.37
2019-05-28T08:05:35.678Z,87.18
2019-05-28T08:08:07.349Z,86.60
2019-05-28T08:10:36.143Z,87.12
2019-05-28T08:13:08.407Z,87.32
2019-05-28T08:15:36.890Z,87.19
2019-05-28T08:18:05.950Z,87.53
2019-05-28T08:20:34.815Z,87.36
2019-05-28T08:23:03.311Z,87.49
2019-05-28T08:25:46.095Z,86.87
2019-05-28T08:28:18.470Z,86.43
2019-05-28T08:30:32.263Z,86.67
2019-05-28T08:33:00.696Z,86.07
2019-05-28T08:35:29.116Z,85.51
2019-05-28T08:37:57.541Z,85.55
2019-05-28T08:40:25.978Z,85.59
2019-05-28T08:42:55.393Z,83.58
2019-05-28T08:45:23.888Z,82.97
2019-05-28T08:47:52.415Z,83.26
2019-05-28T08:50:33.750Z,83.97
2019-05-28T08:52:51.089Z,81.32
2019-05-28T08:55:19.576Z,81.83
2019-05-28T08:57:48.008Z,80.97
2019-05-28T09:00:22.361Z,80.03
2019-05-28T09:02:50.754Z,79.71
2019-05-28T09:05:26.419Z,80.42
2019-05-28T09:07:49.337Z,80.74
2019-05-28T09:10:17.771Z,78.80
2019-05-28T09:12:46.201Z,75.55
2019-05-28T09:15:14.710Z,75.31
2019-05-28T09:17:43.137Z,75.41
2019-05-28T09:20:11.723Z,73.50
2019-05-28T09:22:40.153Z,73.54
2019-05-28T09:25:08.727Z,74.96
2019-05-28T09:27:37.138Z,73.44
2019-05-28T09:30:09.352Z,74.64
2019-05-28T09:32:37.961Z,74.34
2019-05-28T09:35:08.164Z,71.75
2019-05-28T09:37:36.576Z,71.02
2019-05-28T09:40:08.727Z,72.15
2019-05-28T09:42:37.154Z,72.23
2019-05-28T09:45:21.965Z,72.03
2019-05-28T09:47:37.441Z,71.32
2019-05-28T09:50:27.051Z,70.62
2019-05-28T09:52:52.971Z,71.53
2019-05-28T09:55:09.339Z,70.07
2019-05-28T09:57:47.005Z,72.29
2019-05-28T10:00:10.586Z,71.12
2019-05-28T10:02:39.131Z,69.55
2019-05-28T10:05:08.113Z,68.05
2019-05-28T10:07:36.526Z,68.10
2019-05-28T10:10:08.218Z,67.08
2019-05-28T10:12:36.631Z,66.31
2019-05-28T10:15:07.168Z,67.22
2019-05-28T10:17:35.756Z,64.64
2019-05-28T10:20:06.998Z,65.47
2019-05-28T10:22:35.437Z,65.09
2019-05-28T10:25:06.755Z,66.04
2019-05-28T10:27:35.178Z,65.67
2019-05-28T10:30:05.516Z,68.30
2019-05-28T10:32:33.924Z,70.12
2019-05-28T10:35:04.218Z,71.50
2019-05-28T10:37:32.590Z,74.11
2019-05-28T10:40:01.008Z,76.91
2019-05-28T10:42:29.442Z,77.58
2019-05-28T10:44:57.881Z,79.32
2019-05-28T10:47:26.312Z,78.85
2019-05-28T10:49:54.744Z,79.38
2019-05-28T10:52:23.212Z,76.97
2019-05-28T10:54:51.632Z,75.76
2019-05-28T10:57:20.088Z,79.03
2019-05-28T10:59:48.524Z,76.85
2019-05-28T11:02:16.961Z,76.96
2019-05-28T11:04:45.423Z,76.95
2019-05-28T11:07:13.846Z,76.47
2019-05-28T11:09:42.285Z,77.13
2019-05-28T11:12:10.713Z,78.31
2019-05-28T11:14:39.138Z,78.49
2019-05-28T11:17:07.575Z,76.25
2019-05-28T11:19:36.090Z,76.70
2019-05-28T11:22:04.963Z,77.43
2019-05-28T11:24:33.397Z,77.83
2019-05-28T11:27:01.835Z,79.61
2019-05-28T11:29:30.273Z,79.46
2019-05-28T11:31:58.723Z,74.49
2019-05-28T11:34:27.193Z,77.46
2019-05-28T11:37:08.781Z,76.18
2019-05-28T11:39:25.751Z,77.55
2019-05-28T11:41:54.178Z,74.46
2019-05-28T11:44:22.626Z,74.30
2019-05-28T11:46:51.187Z,71.96
2019-05-28T11:49:19.725Z,72.32
2019-05-28T11:51:48.155Z,73.26
2019-05-28T11:54:16.586Z,72.93
2019-05-28T11:56:45.024Z,75.13
2019-05-28T11:59:13.457Z,72.86
2019-05-28T12:01:46.950Z,72.35
2019-05-28T12:04:18.195Z,71.32
2019-05-28T12:06:49.327Z,71.86
2019-05-28T12:09:20.990Z,71.20
2019-05-28T12:11:52.542Z,69.67
2019-05-28T12:14:25.870Z,69.53
2019-05-28T12:17:00.772Z,71.94
2019-05-28T12:19:35.194Z,68.14
2019-05-28T12:22:05.117Z,66.91
2019-05-28T12:24:33.571Z,66.46
2019-05-28T12:27:04.453Z,66.85
2019-05-28T12:29:51.054Z,66.58
2019-05-28T12:32:09.684Z,67.28
2019-05-28T12:34:42.144Z,64.18
2019-05-28T12:37:15.373Z,65.67
2019-05-28T12:39:47.863Z,60.97
2019-05-28T12:42:19.305Z,59.96
2019-05-28T12:45:08.258Z,61.14
2019-05-28T12:47:22.421Z,58.68
2019-05-28T12:49:50.947Z,59.33
2019-05-28T12:52:19.372Z,57.40
2019-05-28T12:54:47.806Z,57.41
2019-05-28T12:57:16.239Z,57.13
2019-05-28T12:59:44.664Z,54.64
2019-05-28T13:02:13.100Z,53.70
2019-05-28T13:04:41.786Z,55.40
2019-05-28T13:07:10.311Z,53.91
2019-05-28T13:09:38.732Z,55.67
2019-05-28T13:12:07.187Z,54.53
2019-05-28T13:14:35.666Z,54.96
2019-05-28T13:17:04.103Z,57.40
2019-05-28T13:19:32.548Z,59.99
2019-05-28T13:22:01.035Z,62.24
2019-05-28T13:24:29.445Z,63.25
2019-05-28T13:26:57.871Z,61.72
2019-05-28T13:29:27.247Z,62.58
2019-05-28T13:31:55.675Z,63.15
2019-05-28T13:34:24.139Z,61.61
2019-05-28T13:36:52.557Z,59.65
2019-05-28T13:39:21.021Z,58.40
2019-05-28T13:41:49.417Z,57.11
2019-05-28T13:44:17.847Z,57.25
2019-05-28T13:46:46.278Z,58.10
2019-05-28T13:49:14.706Z,56.12
2019-05-28T13:51:43.203Z,57.69
2019-05-28T13:54:11.670Z,57.69
2019-05-28T13:56:40.105Z,56.42
2019-05-28T13:59:10.468Z,58.13
2019-05-28T14:01:38.915Z,55.92
2019-05-28T14:04:07.346Z,56.43
2019-05-28T14:06:35.837Z,55.43
2019-05-28T14:09:06.397Z,55.10
2019-05-28T14:11:34.834Z,56.40
2019-05-28T14:14:03.405Z,54.62
2019-05-28T14:16:31.839Z,55.71
2019-05-28T14:19:00.262Z,55.55
2019-05-28T14:21:28.758Z,56.09
2019-05-28T14:23:57.259Z,56.83
2019-05-28T14:26:25.683Z,54.49
2019-05-28T14:28:54.145Z,55.80
2019-05-28T14:31:22.576Z,55.07
2019-05-28T14:33:50.998Z,54.07
2019-05-28T14:36:19.421Z,55.18
2019-05-28T14:39:01.359Z,56.15
2019-05-28T14:41:18.004Z,55.55
2019-05-28T14:43:46.434Z,57.13
2019-05-28T14:46:14.860Z,59.09
2019-05-28T14:48:43.291Z,64.58
2019-05-28T14:51:11.726Z,70.41
2019-05-28T14:53:40.256Z,73.46
2019-05-28T14:56:08.741Z,73.73
2019-05-28T14:58:37.181Z,73.82
2019-05-28T15:01:05.612Z,73.89
2019-05-28T15:03:34.049Z,74.93
2019-05-28T15:06:02.487Z,76.22
2019-05-28T15:08:30.932Z,76.30
2019-05-28T15:10:59.374Z,75.07
2019-05-28T15:13:27.860Z,73.67
2019-05-28T15:15:56.343Z,71.54
2019-05-28T15:18:24.762Z,73.31
2019-05-28T15:20:53.203Z,72.25
2019-05-28T15:23:21.633Z,72.88
2019-05-28T15:25:50.058Z,72.84
2019-05-28T15:28:18.479Z,73.58
2019-05-28T15:30:46.906Z,74.29
2019-05-28T15:33:15.406Z,74.11
2019-05-28T15:35:43.979Z,73.19
2019-05-28T15:38:12.419Z,73.74
2019-05-28T15:40:40.846Z,72.47
2019-05-28T15:43:09.288Z,72.31
2019-05-28T15:45:37.749Z,71.39
2019-05-28T15:48:06.175Z,72.60
2019-05-28T15:50:34.705Z,72.08
2019-05-28T15:53:03.133Z,70.46
2019-05-28T15:55:31.558Z,70.01
2019-05-28T15:58:00.073Z,68.38
2019-05-28T16:00:28.509Z,66.97
2019-05-28T16:02:56.952Z,66.30
2019-05-28T16:05:25.412Z,68.23
2019-05-28T16:07:53.896Z,69.87
2019-05-28T16:10:22.386Z,69.26
2019-05-28T16:12:50.812Z,69.71
2019-05-28T16:15:19.579Z,68.86
2019-05-28T16:17:48.012Z,70.54
2019-05-28T16:20:16.941Z,70.80
2019-05-28T16:22:45.418Z,70.24
2019-05-28T16:25:14.346Z,70.45
2019-05-28T16:27:42.762Z,69.98
2019-05-28T16:30:11.878Z,70.63
2019-05-28T16:32:40.361Z,70.60
2019-05-28T16:35:09.421Z,70.34
2019-05-28T16:37:37.847Z,70.16
2019-05-28T16:40:14.802Z,70.74
2019-05-28T16:42:37.433Z,72.35
2019-05-28T16:45:07.298Z,71.57
2019-05-28T16:47:35.722Z,70.92
2019-05-28T16:50:05.520Z,70.76
2019-05-28T16:52:33.932Z,71.81
2019-05-28T16:55:02.349Z,71.47
2019-05-28T16:57:30.807Z,71.49
2019-05-28T16:59:59.224Z,70.76
2019-05-28T17:02:27.668Z,71.27
2019-05-28T17:04:56.097Z,70.96
2019-05-28T17:07:24.579Z,71.45
2019-05-28T17:09:55.535Z,71.09
2019-05-28T17:12:23.161Z,71.09
2019-05-28T17:14:51.584Z,70.89
2019-05-28T17:17:20.025Z,70.96
2019-05-28T17:19:49.443Z,71.17
2019-05-28T17:22:17.871Z,70.93
2019-05-28T17:24:46.850Z,70.72
2019-05-28T17:27:16.341Z,70.69
2019-05-28T17:29:44.768Z,71.43
2019-05-28T17:32:13.262Z,70.98
2019-05-28T17:34:41.757Z,70.33
2019-05-28T17:37:10.189Z,70.66
2019-05-28T17:39:38.623Z,70.87
2019-05-28T17:42:07.069Z,71.13
2019-05-28T17:44:35.479Z,70.82
2019-05-28T17:47:03.981Z,70.23
2019-05-28T17:49:32.402Z,69.43
2019-05-28T17:52:00.839Z,70.22
2019-05-28T17:54:29.257Z,70.17
2019-05-28T17:56:57.704Z,69.98
2019-05-28T17:59:26.126Z,70.18
2019-05-28T18:01:54.623Z,70.33
2019-05-28T18:04:24.035Z,70.34
2019-05-28T18:06:52.552Z,70.49
2019-05-28T18:09:20.999Z,70.10
2019-05-28T18:11:49.423Z,69.76
2019-05-28T18:14:17.873Z,70.40
2019-05-28T18:16:46.314Z,70.31
2019-05-28T18:19:14.911Z,70.53
2019-05-28T18:21:43.370Z,70.54
2019-05-28T18:24:11.765Z,70.98
2019-05-28T18:26:40.187Z,70.93
2019-05-28T18:29:08.664Z,71.57
2019-05-28T18:31:37.086Z,70.92
2019-05-28T18:34:05.586Z,70.47
2019-05-28T18:36:34.018Z,70.56
2019-05-28T18:39:02.532Z,70.60
2019-05-28T18:41:30.949Z,70.98
2019-05-28T18:44:01.379Z,71.04
2019-05-28T18:46:29.513Z,70.73
2019-05-28T18:48:57.936Z,70.38
2019-05-28T18:51:26.427Z,70.40
2019-05-28T18:53:54.895Z,71.34
2019-05-28T18:56:23.354Z,71.09
2019-05-28T18:58:52.621Z,71.21
2019-05-28T19:01:21.003Z,71.01
2019-05-28T19:03:49.421Z,70.95
2019-05-28T19:06:17.869Z,70.51
2019-05-28T19:08:46.320Z,70.67
2019-05-28T19:11:14.805Z,70.71
2019-05-28T19:13:43.241Z,71.06
2019-05-28T19:16:11.690Z,71.31
2019-05-28T19:18:40.160Z,71.58
2019-05-28T19:21:08.537Z,71.71
2019-05-28T19:23:36.976Z,72.03
2019-05-28T19:26:05.476Z,72.05
2019-05-28T19:28:33.960Z,71.92
2019-05-28T19:31:02.554Z,71.83
2019-05-28T19:33:31.059Z,72.04
2019-05-28T19:36:01.196Z,72.48
2019-05-28T19:38:44.492Z,72.23
2019-05-28T19:40:59.938Z,72.36
2019-05-28T19:43:28.410Z,72.20
2019-05-28T19:45:56.780Z,72.62
2019-05-28T19:48:25.552Z,72.25
2019-05-28T19:50:53.978Z,72.95
2019-05-28T19:53:22.352Z,72.92
2019-05-28T19:55:50.780Z,72.84
2019-05-28T19:58:19.127Z,73.02
2019-05-28T20:00:47.521Z,72.71
2019-05-28T20:03:15.982Z,72.97
2019-05-28T20:05:44.459Z,73.17
2019-05-28T20:08:12.963Z,73.24
2019-05-28T20:10:41.692Z,73.37
2019-05-28T20:13:10.087Z,73.20
2019-05-28T20:15:38.507Z,73.53
2019-05-28T20:18:07.771Z,73.88
2019-05-28T20:20:36.150Z,73.79
2019-05-28T20:23:04.695Z,74.03
2019-05-28T20:25:33.095Z,74.16
2019-05-28T20:28:01.486Z,74.35
2019-05-28T20:30:29.965Z,74.46
2019-05-28T20:32:59.140Z,74.43
2019-05-28T20:35:30.960Z,74.46
2019-05-28T20:37:57.820Z,74.95
2019-05-28T20:40:26.270Z,75.03
2019-05-28T20:42:54.735Z,75.07
2019-05-28T20:45:23.121Z,75.46
2019-05-28T20:47:51.507Z,75.49
2019-05-28T20:50:20.184Z,75.37
2019-05-28T20:52:48.567Z,75.25
2019-05-28T20:55:17.701Z,75.45
2019-05-28T20:57:47.061Z,75.80
2019-05-28T21:00:17.088Z,75.08
2019-05-28T21:02:45.472Z,75.33
2019-05-28T21:05:14.193Z,74.83
2019-05-28T21:07:42.575Z,75.02
2019-05-28T21:10:12.297Z,75.12
2019-05-28T21:12:44.531Z,75.36
2019-05-28T21:15:15.917Z,75.52
2019-05-28T21:17:42.832Z,75.88
2019-05-28T21:20:12.956Z,75.56
2019-05-28T21:22:41.355Z,75.67
2019-05-28T21:25:09.983Z,75.81
2019-05-28T21:27:38.432Z,75.53
2019-05-28T21:30:07.669Z,75.26
2019-05-28T21:32:36.132Z,75.66
2019-05-28T21:35:06.114Z,75.57
2019-05-28T21:37:34.537Z,75.61
2019-05-28T21:40:02.961Z,75.71
2019-05-28T21:42:31.352Z,75.85
2019-05-28T21:45:00.263Z,75.70
2019-05-28T21:47:28.605Z,75.17
2019-05-28T21:49:58.867Z,75.47
2019-05-28T21:52:27.163Z,75.26
2019-05-28T21:54:55.736Z,75.96
2019-05-28T21:57:24.133Z,76.01
2019-05-28T21:59:53.503Z,75.82
2019-05-28T22:02:22.107Z,75.82
2019-05-28T22:04:50.492Z,75.41
2019-05-28T22:07:18.912Z,75.26
2019-05-28T22:09:47.307Z,75.03
2019-05-28T22:12:15.695Z,75.09
2019-05-28T22:14:44.076Z,74.99
2019-05-28T22:17:13.327Z,75.73
2019-05-28T22:19:41.756Z,76.05
2019-05-28T22:22:10.156Z,75.83
2019-05-28T22:24:38.603Z,76.01
2019-05-28T22:27:07.032Z,76.08
2019-05-28T22:29:35.464Z,76.62
2019-05-28T22:32:04.911Z,76.72
2019-05-28T22:34:33.494Z,76.18
2019-05-28T22:37:02.434Z,76.07
2019-05-28T22:39:30.929Z,76.26
2019-05-28T22:41:59.674Z,76.30
2019-05-28T22:44:28.209Z,76.26
2019-05-28T22:46:57.066Z,76.59
2019-05-28T22:49:25.469Z,76.67
2019-05-28T22:51:53.863Z,76.51
2019-05-28T22:54:22.260Z,76.74
2019-05-28T22:56:50.725Z,76.68
2019-05-28T22:59:19.120Z,76.89
2019-05-28T23:01:47.516Z,77.08
2019-05-28T23:04:15.917Z,76.55
2019-05-28T23:06:44.317Z,76.40
2019-05-28T23:09:12.729Z,76.22
2019-05-28T23:11:41.187Z,76.19
2019-05-28T23:14:10.329Z,75.88
2019-05-28T23:16:38.848Z,75.92
2019-05-28T23:19:08.621Z,75.39
2019-05-28T23:21:37.201Z,75.51
2019-05-28T23:24:05.591Z,75.81
2019-05-28T23:26:34.084Z,75.98
2019-05-28T23:29:03.626Z,76.14
2019-05-28T23:31:32.057Z,76.47
2019-05-28T23:34:00.439Z,76.55
2019-05-28T23:36:28.831Z,76.60
2019-05-28T23:38:57.215Z,76.39
2019-05-28T23:41:25.661Z,76.52
2019-05-28T23:44:02.051Z,76.67
2019-05-28T23:46:24.232Z,76.75
2019-05-28T23:48:52.629Z,76.98
2019-05-28T23:51:21.083Z,76.99
2019-05-28T23:53:49.544Z,76.63
2019-05-28T23:56:18.054Z,77.13
2019-05-28T23:58:46.423Z,77.06
